createdAt,value
2019-01-25T00:01:00.094Z,100955.36
2019-01-25T00:03:32.411Z,100954.60
2019-01-25T00:06:06.455Z,100958.81
2019-01-25T00:08:39.166Z,100958.42
2019-01-25T00:11:11.377Z,100960.28
2019-01-25T00:13:42.802Z,100968.61
2019-01-25T00:16:16.130Z,100968.48
2019-01-25T00:18:48.739Z,100960.09
2019-01-25T00:21:24.596Z,100959.98
2019-01-25T00:23:57.002Z,100952.16
2019-01-25T00:26:32.722Z,100949.45
2019-01-25T00:29:05.165Z,100954.76
2019-01-25T00:31:38.439Z,100950.44
2019-01-25T00:34:12.735Z,100956.05
2019-01-25T00:36:49.383Z,100950.42
2019-01-25T00:39:21.991Z,100950.06
2019-01-25T00:41:54.376Z,100947.31
2019-01-25T00:44:26.962Z,100946.24
2019-01-25T00:47:06.322Z,100953.57
2019-01-25T00:49:39.897Z,100953.55
2019-01-25T00:52:16.923Z,100951.76
2019-01-25T00:54:48.579Z,100955.25
2019-01-25T00:57:19.792Z,100953.03
2019-01-25T00:59:50.990Z,100950.00
2019-01-25T01:02:22.304Z,100948.47
2019-01-25T01:04:53.713Z,100951.61
2019-01-25T01:07:26.163Z,100949.80
2019-01-25T01:09:58.020Z,100942.42
2019-01-25T01:12:29.501Z,100942.94
2019-01-25T01:15:04.093Z,100945.53
2019-01-25T01:17:36.342Z,100946.11
2019-01-25T01:20:13.368Z,100940.12
2019-01-25T01:22:49.243Z,100937.87
2019-01-25T01:25:23.165Z,100943.28
2019-01-25T01:27:57.837Z,100947.23
2019-01-25T01:30:33.345Z,100947.51
2019-01-25T01:33:06.112Z,100948.92
2019-01-25T01:35:38.217Z,100955.63
2019-01-25T01:38:11.985Z,100959.54
2019-01-25T01:40:45.151Z,100965.47
2019-01-25T01:43:15.562Z,100966.48
2019-01-25T01:45:50.104Z,100966.09
2019-01-25T01:48:21.217Z,100967.42
2019-01-25T01:50:53.164Z,100971.67
2019-01-25T01:53:26.183Z,100961.73
2019-01-25T01:55:58.415Z,100970.91
2019-01-25T01:58:29.688Z,100971.80
2019-01-25T02:01:05.990Z,100973.95
2019-01-25T02:03:37.953Z,100967.19
2019-01-25T02:06:09.786Z,100966.94
2019-01-25T02:08:41.313Z,100974.83
2019-01-25T02:11:12.582Z,100974.34
2019-01-25T02:13:44.422Z,100970.86
2019-01-25T02:16:15.724Z,100968.45
2019-01-25T02:18:47.903Z,100970.00
2019-01-25T02:21:19.558Z,100975.25
2019-01-25T02:23:52.846Z,100970.00
2019-01-25T02:26:25.382Z,100971.16
2019-01-25T02:28:57.790Z,100967.38
2019-01-25T02:31:28.721Z,100962.80
2019-01-25T02:34:05.057Z,100972.13
2019-01-25T02:36:36.785Z,100974.48
2019-01-25T02:39:10.900Z,100972.80
2019-01-25T02:41:43.410Z,100973.45
2019-01-25T02:44:14.681Z,100972.58
2019-01-25T02:46:45.244Z,100972.56
2019-01-25T02:49:18.804Z,100971.72
2019-01-25T02:51:55.811Z,100973.47
2019-01-25T02:54:30.888Z,100970.06
2019-01-25T02:57:01.243Z,100963.36
2019-01-25T02:59:32.729Z,100965.66
2019-01-25T03:02:05.697Z,100964.39
2019-01-25T03:04:38.583Z,100968.81
2019-01-25T03:07:09.710Z,100962.33
2019-01-25T03:09:50.135Z,100960.98
2019-01-25T03:12:22.628Z,100965.30
2019-01-25T03:14:54.889Z,100969.98
2019-01-25T03:17:26.886Z,100958.24
2019-01-25T03:19:59.072Z,100963.25
2019-01-25T03:22:32.005Z,100960.80
2019-01-25T03:25:11.661Z,100963.29
2019-01-25T03:27:47.738Z,100964.19
2019-01-25T03:30:28.672Z,100965.64
2019-01-25T03:33:08.018Z,100967.07
2019-01-25T03:35:40.227Z,100968.67
2019-01-25T03:38:11.788Z,100972.47
2019-01-25T03:40:44.581Z,100970.05
2019-01-25T03:43:16.522Z,100975.34
2019-01-25T03:45:47.581Z,100975.38
2019-01-25T03:48:18.483Z,100973.22
2019-01-25T03:50:52.934Z,100971.43
2019-01-25T03:53:25.305Z,100968.01
2019-01-25T03:55:57.894Z,100978.00
2019-01-25T03:58:30.337Z,100974.55
2019-01-25T04:01:02.555Z,100970.98
2019-01-25T04:03:33.961Z,100968.79
2019-01-25T04:06:07.596Z,100965.09
2019-01-25T04:08:40.609Z,100970.72
2019-01-25T04:11:13.002Z,100982.88
2019-01-25T04:13:47.628Z,100979.87
2019-01-25T04:16:20.366Z,100983.80
2019-01-25T04:18:54.000Z,100976.81
2019-01-25T04:21:27.195Z,100979.11
2019-01-25T04:24:00.896Z,100984.05
2019-01-25T04:26:35.214Z,100981.92
2019-01-25T04:29:11.787Z,100980.19
2019-01-25T04:31:43.927Z,100981.11
2019-01-25T04:34:16.604Z,100983.74
2019-01-25T04:36:51.333Z,100986.83
2019-01-25T04:39:22.886Z,100985.98
2019-01-25T04:41:55.236Z,100988.06
2019-01-25T04:44:26.941Z,100985.94
2019-01-25T04:46:58.493Z,100989.87
2019-01-25T04:49:30.029Z,100989.42
2019-01-25T04:52:04.163Z,100986.41
2019-01-25T04:54:42.414Z,100979.41
2019-01-25T04:57:15.516Z,100975.03
2019-01-25T04:59:47.235Z,100973.31
2019-01-25T05:02:19.687Z,100973.74
2019-01-25T05:04:53.342Z,100976.30
2019-01-25T05:07:27.725Z,100977.77
2019-01-25T05:10:00.471Z,100974.44
2019-01-25T05:12:33.764Z,100972.23
2019-01-25T05:15:07.823Z,100978.48
2019-01-25T05:17:40.105Z,100975.43
2019-01-25T05:20:11.434Z,100976.70
2019-01-25T05:22:44.467Z,100968.90
2019-01-25T05:25:26.017Z,100974.38
2019-01-25T05:28:04.597Z,100980.56
2019-01-25T05:30:39.300Z,100974.27
2019-01-25T05:33:13.746Z,100980.38
2019-01-25T05:35:45.785Z,100986.34
2019-01-25T05:38:17.748Z,100988.08
2019-01-25T05:40:51.687Z,100985.80
2019-01-25T05:43:25.185Z,100990.47
2019-01-25T05:45:56.118Z,100993.98
2019-01-25T05:48:34.795Z,100989.66
2019-01-25T05:51:08.709Z,100997.89
2019-01-25T05:53:52.902Z,100991.47
2019-01-25T05:56:26.044Z,100995.22
2019-01-25T05:58:58.830Z,100999.44
2019-01-25T06:01:29.611Z,101007.04
2019-01-25T06:04:00.839Z,101001.06
2019-01-25T06:06:33.038Z,101017.58
2019-01-25T06:09:06.808Z,101025.44
2019-01-25T06:11:41.972Z,101023.45
2019-01-25T06:14:18.434Z,101031.84
2019-01-25T06:16:52.622Z,101027.39
2019-01-25T06:19:26.962Z,101029.60
2019-01-25T06:21:58.223Z,101028.24
2019-01-25T06:24:30.634Z,101028.80
2019-01-25T06:27:02.748Z,101033.14
2019-01-25T06:29:39.831Z,101031.02
2019-01-25T06:32:12.203Z,101032.33
2019-01-25T06:34:47.477Z,101029.33
2019-01-25T06:37:20.262Z,101026.58
2019-01-25T06:39:52.976Z,101031.09
2019-01-25T06:42:24.836Z,101030.20
2019-01-25T06:45:00.273Z,101040.70
2019-01-25T06:47:33.005Z,101028.70
2019-01-25T06:50:06.894Z,101041.13
2019-01-25T06:52:37.455Z,101036.56
2019-01-25T06:55:12.022Z,101036.19
2019-01-25T06:58:08.644Z,101041.47
2019-01-25T07:00:46.788Z,101039.78
2019-01-25T07:03:23.904Z,101040.27
2019-01-25T07:06:01.585Z,101044.20
2019-01-25T07:08:41.416Z,101031.73
2019-01-25T07:11:15.245Z,101039.78
2019-01-25T07:13:47.418Z,101038.98
2019-01-25T07:16:22.522Z,101034.20
2019-01-25T07:18:53.407Z,101037.19
2019-01-25T07:21:26.721Z,101025.60
2019-01-25T07:23:57.622Z,101028.11
2019-01-25T07:26:29.520Z,101025.17
2019-01-25T07:29:02.800Z,101036.21
2019-01-25T07:31:35.714Z,101029.44
2019-01-25T07:34:07.941Z,101037.41
2019-01-25T07:36:39.844Z,101048.89
2019-01-25T07:39:25.555Z,101052.45
2019-01-25T07:42:02.226Z,101051.39
2019-01-25T07:44:38.455Z,101054.01
2019-01-25T07:47:11.694Z,101060.16
2019-01-25T07:49:45.122Z,101058.45
2019-01-25T07:52:21.298Z,101055.47
2019-01-25T07:54:53.809Z,101049.45
2019-01-25T07:57:26.795Z,101051.25
2019-01-25T08:00:03.857Z,101058.21
2019-01-25T08:02:38.154Z,101052.64
2019-01-25T08:05:11.274Z,101058.70
2019-01-25T08:07:42.524Z,101056.94
2019-01-25T08:10:16.149Z,101062.28
2019-01-25T08:12:48.470Z,101062.67
2019-01-25T08:15:21.985Z,101054.42
2019-01-25T08:17:55.624Z,101061.34
2019-01-25T08:20:27.464Z,101065.84
2019-01-25T08:23:03.113Z,101065.02
2019-01-25T08:25:34.577Z,101068.11
2019-01-25T08:28:07.181Z,101070.66
2019-01-25T08:30:39.493Z,101065.08
2019-01-25T08:33:14.198Z,101063.87
2019-01-25T08:35:47.739Z,101061.95
2019-01-25T08:38:21.072Z,101068.28
2019-01-25T08:41:05.725Z,101062.92
2019-01-25T08:43:41.345Z,101061.39
2019-01-25T08:46:18.217Z,101070.38
2019-01-25T08:48:54.204Z,101072.16
2019-01-25T08:51:24.997Z,101075.02
2019-01-25T08:54:00.997Z,101074.60
2019-01-25T08:56:34.995Z,101079.05
2019-01-25T08:59:05.632Z,101087.48
2019-01-25T09:01:39.555Z,101089.16
2019-01-25T09:04:11.484Z,101078.97
2019-01-25T09:06:42.734Z,101074.16
2019-01-25T09:09:13.651Z,101074.89
2019-01-25T09:11:45.271Z,101070.42
2019-01-25T09:14:16.597Z,101077.70
2019-01-25T09:16:47.436Z,101078.45
2019-01-25T09:19:20.962Z,101073.40
2019-01-25T09:21:54.128Z,101084.00
2019-01-25T09:24:27.832Z,101084.66
2019-01-25T09:27:00.883Z,101081.92
2019-01-25T09:29:31.571Z,101077.08
2019-01-25T09:32:02.683Z,101074.48
2019-01-25T09:34:38.637Z,101086.66
2019-01-25T09:37:12.240Z,101078.42
2019-01-25T09:39:51.694Z,101081.83
2019-01-25T09:42:32.276Z,101082.39
2019-01-25T09:45:05.591Z,101077.89
2019-01-25T09:47:39.884Z,101085.88
2019-01-25T09:50:15.363Z,101092.96
2019-01-25T09:52:52.930Z,101101.23
2019-01-25T09:55:25.512Z,101101.30
2019-01-25T09:57:58.834Z,101109.16
2019-01-25T10:00:39.186Z,101108.34
2019-01-25T10:03:11.067Z,101103.88
2019-01-25T10:05:44.359Z,101113.94
2019-01-25T10:08:22.012Z,101114.36
2019-01-25T10:10:57.754Z,101113.91
2019-01-25T10:13:31.889Z,101114.86
2019-01-25T10:16:06.177Z,101113.97
2019-01-25T10:18:40.403Z,101115.34
2019-01-25T10:21:11.984Z,101111.42
2019-01-25T10:23:51.808Z,101107.39
2019-01-25T10:26:26.866Z,101096.84
2019-01-25T10:29:00.115Z,101081.73
2019-01-25T10:31:37.621Z,101082.38
2019-01-25T10:34:09.615Z,101078.13
2019-01-25T10:36:42.115Z,101080.32
2019-01-25T10:39:15.158Z,101077.68
2019-01-25T10:41:57.317Z,101080.73
2019-01-25T10:44:30.483Z,101071.55
2019-01-25T10:47:01.836Z,101071.11
2019-01-25T10:49:34.797Z,101077.23
2019-01-25T10:52:09.610Z,101078.40
2019-01-25T10:54:48.230Z,101068.36
2019-01-25T10:57:22.836Z,101063.05
2019-01-25T10:59:54.876Z,101056.22
2019-01-25T11:02:26.275Z,101059.18
2019-01-25T11:04:59.160Z,101056.61
2019-01-25T11:07:34.492Z,101058.18
2019-01-25T11:10:07.694Z,101046.98
2019-01-25T11:12:39.350Z,101043.56
2019-01-25T11:15:22.637Z,101048.17
2019-01-25T11:17:59.298Z,101047.27
2019-01-25T11:20:39.950Z,101044.81
2019-01-25T11:23:13.561Z,101031.67
2019-01-25T11:25:45.226Z,101032.34
2019-01-25T11:28:18.943Z,101032.86
2019-01-25T11:30:49.954Z,101040.97
2019-01-25T11:33:22.137Z,101032.02
2019-01-25T11:35:56.895Z,101033.83
2019-01-25T11:38:30.553Z,101035.33
2019-01-25T11:41:04.548Z,101030.13
2019-01-25T11:43:38.460Z,101015.87
2019-01-25T11:46:15.197Z,101017.03
2019-01-25T11:48:48.580Z,101015.83
2019-01-25T11:51:21.819Z,101003.59
2019-01-25T11:53:59.171Z,100993.98
2019-01-25T11:56:34.029Z,100993.06
2019-01-25T11:59:08.508Z,101000.14
2019-01-25T12:01:40.688Z,100998.81
2019-01-25T12:04:13.655Z,100992.16
2019-01-25T12:06:48.228Z,100985.13
2019-01-25T12:09:24.622Z,100987.25
2019-01-25T12:11:58.538Z,100985.65
2019-01-25T12:14:31.228Z,100976.80
2019-01-25T12:17:05.277Z,100972.34
2019-01-25T12:19:36.635Z,100970.59
2019-01-25T12:22:08.885Z,100977.31
2019-01-25T12:24:43.396Z,100986.89
2019-01-25T12:27:20.234Z,100984.46
2019-01-25T12:29:52.245Z,100994.24
2019-01-25T12:32:25.844Z,100991.58
2019-01-25T12:34:56.659Z,100997.27
2019-01-25T12:37:27.359Z,100988.83
2019-01-25T12:39:59.256Z,100987.34
2019-01-25T12:42:30.132Z,100994.80
2019-01-25T12:45:01.438Z,100998.59
2019-01-25T12:47:32.929Z,101003.09
2019-01-25T12:50:04.447Z,100994.19
2019-01-25T12:52:36.458Z,100992.75
2019-01-25T12:55:11.208Z,100991.67
2019-01-25T12:57:42.217Z,100990.29
2019-01-25T13:00:14.973Z,100984.28
2019-01-25T13:02:45.985Z,100981.89
2019-01-25T13:05:18.305Z,100974.70
2019-01-25T13:07:52.728Z,100948.06
2019-01-25T13:10:26.927Z,100944.23
2019-01-25T13:12:58.580Z,100950.43
2019-01-25T13:15:38.323Z,100944.88
2019-01-25T13:18:12.503Z,100945.13
2019-01-25T13:20:46.814Z,100956.65
2019-01-25T13:23:26.363Z,100960.50
2019-01-25T13:25:59.642Z,100963.72
2019-01-25T13:28:41.723Z,100961.10
2019-01-25T13:31:10.867Z,100972.52
2019-01-25T13:33:42.825Z,100958.61
2019-01-25T13:36:14.873Z,100942.19
2019-01-25T13:38:48.133Z,100937.04
2019-01-25T13:41:20.170Z,100948.02
2019-01-25T13:43:51.312Z,100954.61
2019-01-25T13:46:23.615Z,100961.90
2019-01-25T13:48:56.175Z,100960.86
2019-01-25T13:51:26.775Z,100952.27
2019-01-25T13:54:04.062Z,100954.59
2019-01-25T13:56:44.930Z,100947.42
2019-01-25T13:59:17.063Z,100952.49
2019-01-25T14:01:48.876Z,100933.05
2019-01-25T14:04:21.982Z,100934.73
2019-01-25T14:06:53.256Z,100932.34
2019-01-25T14:09:28.498Z,100929.59
2019-01-25T14:12:00.870Z,100928.06
2019-01-25T14:14:32.588Z,100921.97
2019-01-25T14:17:03.867Z,100924.27
2019-01-25T14:19:34.200Z,100926.30
2019-01-25T14:22:06.249Z,100911.75
2019-01-25T14:24:36.878Z,100916.96
2019-01-25T14:27:13.890Z,100906.03
2019-01-25T14:29:47.379Z,100903.41
2019-01-25T14:32:27.758Z,100904.08
2019-01-25T14:35:01.085Z,100899.16
2019-01-25T14:37:35.371Z,100879.70
2019-01-25T14:40:12.010Z,100880.83
2019-01-25T14:42:51.678Z,100876.48
2019-01-25T14:45:27.134Z,100873.63
2019-01-25T14:48:07.416Z,100853.78
2019-01-25T14:50:57.654Z,100859.86
2019-01-25T14:53:50.797Z,100853.06
2019-01-25T14:56:20.019Z,100853.50
2019-01-25T14:59:05.044Z,100853.20
2019-01-25T15:02:01.001Z,100855.31
2019-01-25T15:04:47.143Z,100847.95
2019-01-25T15:07:26.017Z,100841.20
2019-01-25T15:10:04.099Z,100843.27
2019-01-25T15:12:47.083Z,100839.81
2019-01-25T15:17:09.744Z,100845.48
2019-01-25T15:19:51.415Z,100846.76
2019-01-25T15:22:30.550Z,100853.64
2019-01-25T15:25:06.056Z,100858.11
2019-01-25T15:27:50.358Z,100857.22
2019-01-25T15:30:30.112Z,100861.73
2019-01-25T15:33:08.899Z,100863.27
2019-01-25T15:35:58.742Z,100869.12
2019-01-25T15:38:35.221Z,100870.97
2019-01-25T15:41:07.713Z,100880.20
2019-01-25T15:43:49.549Z,100884.45
2019-01-25T15:46:35.242Z,100887.33
2019-01-25T15:49:25.310Z,100877.10
2019-01-25T15:52:03.948Z,100864.59
2019-01-25T15:54:46.449Z,100862.16
2019-01-25T15:57:31.035Z,100858.86
2019-01-25T16:00:12.439Z,100851.45
2019-01-25T16:03:12.095Z,100856.55
2019-01-25T16:06:19.081Z,100860.52
2019-01-25T16:08:51.928Z,100856.83
2019-01-25T16:11:27.621Z,100851.38
2019-01-25T16:14:01.421Z,100854.59
2019-01-25T16:16:32.914Z,100852.88
2019-01-25T16:19:09.028Z,100848.05
2019-01-25T16:21:43.952Z,100849.84
2019-01-25T16:24:14.559Z,100845.44
2019-01-25T16:26:46.255Z,100838.58
2019-01-25T16:29:21.768Z,100837.12
2019-01-25T16:31:52.540Z,100848.55
2019-01-25T16:34:23.626Z,100851.91
2019-01-25T16:37:00.977Z,100851.47
2019-01-25T16:39:37.035Z,100851.98
2019-01-25T16:42:10.320Z,100857.83
2019-01-25T16:44:42.023Z,100861.23
2019-01-25T16:47:16.185Z,100869.60
2019-01-25T16:49:47.747Z,100866.22
2019-01-25T16:52:24.959Z,100857.52
2019-01-25T16:54:58.992Z,100857.05
2019-01-25T16:57:31.546Z,100853.92
2019-01-25T17:00:02.812Z,100848.66
2019-01-25T17:02:34.547Z,100841.11
2019-01-25T17:05:06.554Z,100833.57
2019-01-25T17:07:39.366Z,100820.56
2019-01-25T17:10:10.228Z,100825.84
2019-01-25T17:12:47.668Z,100818.75
2019-01-25T17:15:19.245Z,100816.30
2019-01-25T17:17:50.906Z,100818.15
2019-01-25T17:20:24.766Z,100817.19
2019-01-25T17:22:56.769Z,100823.98
2019-01-25T17:25:31.097Z,100811.27
2019-01-25T17:28:08.658Z,100804.88
2019-01-25T17:30:43.298Z,100796.73
2019-01-25T17:33:15.495Z,100795.88
2019-01-25T17:35:55.468Z,100798.89
2019-01-25T17:38:29.784Z,100800.73
2019-01-25T17:41:02.716Z,100797.00
2019-01-25T17:43:38.704Z,100795.19
2019-01-25T17:46:12.129Z,100795.97
2019-01-25T17:48:42.967Z,100786.56
2019-01-25T17:51:15.145Z,100781.39
2019-01-25T17:53:45.731Z,100774.69
2019-01-25T17:56:16.345Z,100773.50
2019-01-25T17:58:50.113Z,100774.50
2019-01-25T18:01:21.473Z,100769.02
2019-01-25T18:03:54.137Z,100767.81
2019-01-25T18:06:28.744Z,100764.64
2019-01-25T18:09:02.296Z,100762.11
2019-01-25T18:11:34.742Z,100747.47
2019-01-25T18:14:10.672Z,100751.09
2019-01-25T18:16:41.620Z,100752.97
2019-01-25T18:19:14.879Z,100756.85
2019-01-25T18:21:46.409Z,100758.79
2019-01-25T18:24:20.997Z,100753.20
2019-01-25T18:26:52.798Z,100749.50
2019-01-25T18:29:44.667Z,100740.57
2019-01-25T18:32:18.411Z,100740.97
2019-01-25T18:34:50.657Z,100741.03
2019-01-25T18:37:23.601Z,100747.75
2019-01-25T18:39:56.267Z,100736.44
2019-01-25T18:42:29.786Z,100734.25
2019-01-25T18:45:06.483Z,100741.34
2019-01-25T18:48:08.148Z,100734.72
2019-01-25T18:50:46.533Z,100732.34
2019-01-25T18:53:19.109Z,100733.52
2019-01-25T18:55:51.617Z,100738.36
2019-01-25T18:58:23.333Z,100727.11
2019-01-25T19:00:53.935Z,100732.27
2019-01-25T19:03:25.073Z,100731.38
2019-01-25T19:05:56.329Z,100733.72
2019-01-25T19:15:20.364Z,100730.08
2019-01-25T19:17:55.085Z,100726.91
2019-01-25T19:20:26.352Z,100717.41
2019-01-25T19:22:59.761Z,100721.75
2019-01-25T19:25:31.144Z,100704.98
2019-01-25T19:28:03.433Z,100703.05
2019-01-25T19:30:38.088Z,100704.56
2019-01-25T19:33:09.504Z,100699.64
2019-01-25T19:35:45.459Z,100692.67
2019-01-25T19:38:22.962Z,100687.84
2019-01-25T19:40:56.582Z,100686.23
2019-01-25T19:43:31.400Z,100681.63
2019-01-25T19:46:02.931Z,100682.66
2019-01-25T19:48:34.712Z,100681.34
2019-01-25T19:51:08.763Z,100673.89
2019-01-25T19:53:42.937Z,100669.55
2019-01-25T19:56:16.607Z,100680.47
2019-01-25T19:58:48.906Z,100678.27
2019-01-25T20:01:21.966Z,100676.44
2019-01-25T20:03:54.727Z,100677.34
2019-01-25T20:06:27.946Z,100672.52
2019-01-25T20:09:00.438Z,100671.55
2019-01-25T20:11:32.941Z,100667.02
2019-01-25T20:14:09.524Z,100663.42
2019-01-25T20:16:47.706Z,100672.55
2019-01-25T20:19:21.676Z,100671.97
2019-01-25T20:21:55.907Z,100673.24
2019-01-25T20:24:29.723Z,100671.83
2019-01-25T20:27:01.925Z,100673.97
2019-01-25T20:29:36.067Z,100663.47
2019-01-25T20:32:07.083Z,100673.67
2019-01-25T20:34:39.696Z,100668.61
2019-01-25T20:37:17.026Z,100671.28
2019-01-25T20:39:50.270Z,100664.86
2019-01-25T20:42:25.345Z,100662.06
2019-01-25T20:45:00.589Z,100665.19
2019-01-25T20:47:36.542Z,100661.80
2019-01-25T20:50:10.728Z,100652.19
2019-01-25T20:52:42.770Z,100657.20
2019-01-25T20:55:20.261Z,100657.01
2019-01-25T20:57:52.219Z,100654.70
2019-01-25T21:00:27.449Z,100652.11
2019-01-25T21:03:00.209Z,100652.86
2019-01-25T21:05:32.551Z,100655.22
2019-01-25T21:08:06.383Z,100647.92
2019-01-25T21:10:38.483Z,100651.16
2019-01-25T21:13:10.231Z,100651.13
2019-01-25T21:15:41.612Z,100649.88
2019-01-25T21:18:17.938Z,100650.19
2019-01-25T21:20:50.625Z,100649.96
2019-01-25T21:23:22.682Z,100639.77
2019-01-25T21:25:58.130Z,100646.81
2019-01-25T21:28:30.386Z,100637.30
2019-01-25T21:31:02.755Z,100636.02
2019-01-25T21:33:35.190Z,100638.44
2019-01-25T21:36:08.177Z,100640.28
2019-01-25T21:38:41.685Z,100636.12
2019-01-25T21:41:13.051Z,100633.61
2019-01-25T21:43:44.859Z,100625.00
2019-01-25T21:46:17.863Z,100620.34
2019-01-25T21:48:52.098Z,100623.81
2019-01-25T21:51:25.312Z,100615.97
2019-01-25T21:53:57.682Z,100619.41
2019-01-25T21:56:29.448Z,100618.69
2019-01-25T21:59:02.519Z,100622.30
2019-01-25T22:01:34.137Z,100615.91
2019-01-25T22:04:06.309Z,100612.53
2019-01-25T22:06:36.755Z,100614.27
2019-01-25T22:09:13.881Z,100615.02
2019-01-25T22:11:49.027Z,100611.27
2019-01-25T22:14:21.767Z,100607.64
2019-01-25T22:16:54.536Z,100603.31
2019-01-25T22:19:31.199Z,100607.39
2019-01-25T22:22:12.279Z,100603.14
2019-01-25T22:24:43.524Z,100605.72
2019-01-25T22:27:16.647Z,100592.33
2019-01-25T22:29:47.624Z,100599.56
2019-01-25T22:32:20.552Z,100598.62
2019-01-25T22:34:56.234Z,100593.77
2019-01-25T22:37:32.044Z,100604.55
2019-01-25T22:40:03.097Z,100598.70
2019-01-25T22:42:35.732Z,100597.23
2019-01-25T22:45:10.463Z,100589.86
2019-01-25T22:47:43.080Z,100594.15
2019-01-25T22:50:22.049Z,100592.00
2019-01-25T22:52:56.106Z,100586.30
2019-01-25T22:55:30.738Z,100584.21
2019-01-25T22:58:04.521Z,100591.77
2019-01-25T23:01:13.576Z,100586.75
2019-01-25T23:04:35.200Z,100594.33
2019-01-25T23:07:28.611Z,100596.73
2019-01-25T23:10:17.382Z,100594.40
2019-01-25T23:12:53.025Z,100574.09
2019-01-25T23:15:25.234Z,100588.44
2019-01-25T23:17:57.686Z,100586.56
2019-01-25T23:20:32.864Z,100580.79
2019-01-25T23:23:05.459Z,100577.19
2019-01-25T23:25:36.830Z,100568.23
2019-01-25T23:28:08.350Z,100571.17
2019-01-25T23:30:39.956Z,100568.93
2019-01-25T23:33:11.431Z,100560.11
2019-01-25T23:35:42.168Z,100564.72
2019-01-25T23:38:17.214Z,100563.59
2019-01-25T23:40:48.934Z,100563.59
2019-01-25T23:43:21.755Z,100558.72
2019-01-25T23:45:55.144Z,100563.81
2019-01-25T23:48:26.293Z,100570.39
2019-01-25T23:50:58.383Z,100571.72
2019-01-25T23:53:32.536Z,100574.24
2019-01-25T23:56:03.742Z,100574.87
2019-01-25T23:58:35.179Z,100581.59
